Reddick, Illinois
Current Conditions -  °F | °C
As of 3:15 AM on Friday 19 Dec 2014 (Local Time) from KIKK Reporting Station
Overcast Overcast  
Wind Chill: 19°   Ceiling: 3100
Heat Index: 25°   Visibility: 10mi
Dew Point: 22°   Wind: 5mph
Humidity: 88%   Direction: 270°W
Pressure: 30.29"   Gusts: NA
Location:  41.1°N, 88.25°W
Report Text: KIKK 190915Z AUTO 27004KT 10SM OVC031 M04/M05 A3029 RMK AO2 T10381055
Loading
Personal Weather Stations






























Interactive Weather Map New forecast layout! Learn more

10-Day Weather Forecast

Advertisements
Track Severe Weather on mobile